sensor_id;sensor_type;location;lat;lon;timestamp;temperature;humidity
33994;DHT22;20673;48.980;8.138;2023-05-10T00:01:52;13.70;99.90
33994;DHT22;20673;48.980;8.138;2023-05-10T00:04:20;13.70;99.90
33994;DHT22;20673;48.980;8.138;2023-05-10T00:06:46;13.70;99.90
33994;DHT22;20673;48.980;8.138;2023-05-10T00:09:13;13.60;99.90
33994;DHT22;20673;48.980;8.138;2023-05-10T00:11:39;13.60;99.90
33994;DHT22;20673;48.980;8.138;2023-05-10T00:14:05;13.60;99.90
33994;DHT22;20673;48.980;8.138;2023-05-10T00:16:32;13.60;99.90
33994;DHT22;20673;48.980;8.138;2023-05-10T00:18:58;13.60;99.90
33994;DHT22;20673;48.980;8.138;2023-05-10T00:21:24;13.70;99.90
33994;DHT22;20673;48.980;8.138;2023-05-10T00:23:50;13.60;99.90
33994;DHT22;20673;48.980;8.138;2023-05-10T00:26:16;13.60;99.90
33994;DHT22;20673;48.980;8.138;2023-05-10T00:28:42;13.70;99.90
33994;DHT22;20673;48.980;8.138;2023-05-10T00:31:08;13.70;99.90
33994;DHT22;20673;48.980;8.138;2023-05-10T00:33:35;13.70;99.90
33994;DHT22;20673;48.980;8.138;2023-05-10T00:36:01;13.70;99.90
33994;DHT22;20673;48.980;8.138;2023-05-10T00:38:27;13.60;99.90
33994;DHT22;20673;48.980;8.138;2023-05-10T00:40:53;13.70;99.90
33994;DHT22;20673;48.980;8.138;2023-05-10T00:43:20;13.70;99.90
33994;DHT22;20673;48.980;8.138;2023-05-10T00:45:46;13.60;99.90
33994;DHT22;20673;48.980;8.138;2023-05-10T00:48:13;13.60;99.90
33994;DHT22;20673;48.980;8.138;2023-05-10T00:50:39;13.60;99.90
33994;DHT22;20673;48.980;8.138;2023-05-10T00:53:06;13.70;99.90
33994;DHT22;20673;48.980;8.138;2023-05-10T00:55:33;13.70;99.90
33994;DHT22;20673;48.980;8.138;2023-05-10T00:57:59;13.60;99.90
33994;DHT22;20673;48.980;8.138;2023-05-10T01:00:26;13.60;99.90
33994;DHT22;20673;48.980;8.138;2023-05-10T01:02:53;13.60;99.90
33994;DHT22;20673;48.980;8.138;2023-05-10T01:05:20;13.60;99.90
33994;DHT22;20673;48.980;8.138;2023-05-10T01:07:46;13.60;99.90
33994;DHT22;20673;48.980;8.138;2023-05-10T01:10:12;13.60;99.90
33994;DHT22;20673;48.980;8.138;2023-05-10T01:12:40;13.60;99.90
33994;DHT22;20673;48.980;8.138;2023-05-10T01:15:10;13.60;99.90
33994;DHT22;20673;48.980;8.138;2023-05-10T01:17:39;13.50;99.90
33994;DHT22;20673;48.980;8.138;2023-05-10T01:20:09;13.50;99.90
33994;DHT22;20673;48.980;8.138;2023-05-10T01:34:25;13.50;99.90
33994;DHT22;20673;48.980;8.138;2023-05-10T01:37:02;13.50;99.90
33994;DHT22;20673;48.980;8.138;2023-05-10T01:39:46;13.50;99.90
33994;DHT22;20673;48.980;8.138;2023-05-10T01:42:17;13.60;99.90
33994;DHT22;20673;48.980;8.138;2023-05-10T01:44:54;13.60;99.90
33994;DHT22;20673;48.980;8.138;2023-05-10T01:47:37;13.60;99.90
33994;DHT22;20673;48.980;8.138;2023-05-10T01:50:10;13.60;99.90
33994;DHT22;20673;48.980;8.138;2023-05-10T01:52:41;13.60;99.90
33994;DHT22;20673;48.980;8.138;2023-05-10T01:55:18;13.60;99.90
33994;DHT22;20673;48.980;8.138;2023-05-10T01:57:48;13.60;99.90
33994;DHT22;20673;48.980;8.138;2023-05-10T02:00:19;13.60;99.90
33994;DHT22;20673;48.980;8.138;2023-05-10T02:02:47;13.50;99.90
33994;DHT22;20673;48.980;8.138;2023-05-10T02:05:15;13.50;99.90
33994;DHT22;20673;48.980;8.138;2023-05-10T02:07:43;13.50;99.90
33994;DHT22;20673;48.980;8.138;2023-05-10T02:10:11;13.50;99.90
33994;DHT22;20673;48.980;8.138;2023-05-10T02:12:42;13.50;99.90
33994;DHT22;20673;48.980;8.138;2023-05-10T02:15:11;13.50;99.90
33994;DHT22;20673;48.980;8.138;2023-05-10T02:17:42;13.50;99.90
33994;DHT22;20673;48.980;8.138;2023-05-10T02:20:10;13.50;99.90
33994;DHT22;20673;48.980;8.138;2023-05-10T02:22:39;13.50;99.90
33994;DHT22;20673;48.980;8.138;2023-05-10T02:25:08;13.50;99.90
33994;DHT22;20673;48.980;8.138;2023-05-10T02:27:37;13.50;99.90
33994;DHT22;20673;48.980;8.138;2023-05-10T02:30:07;13.50;99.90
33994;DHT22;20673;48.980;8.138;2023-05-10T02:32:35;13.50;99.90
33994;DHT22;20673;48.980;8.138;2023-05-10T02:35:03;13.60;99.90
33994;DHT22;20673;48.980;8.138;2023-05-10T02:37:31;13.60;99.90
33994;DHT22;20673;48.980;8.138;2023-05-10T02:40:00;13.60;99.90
33994;DHT22;20673;48.980;8.138;2023-05-10T02:42:29;13.50;99.90
33994;DHT22;20673;48.980;8.138;2023-05-10T02:45:03;13.50;99.90
33994;DHT22;20673;48.980;8.138;2023-05-10T02:47:32;13.40;99.90
33994;DHT22;20673;48.980;8.138;2023-05-10T02:49:59;13.40;99.90
33994;DHT22;20673;48.980;8.138;2023-05-10T02:52:29;13.40;99.90
33994;DHT22;20673;48.980;8.138;2023-05-10T02:55:00;13.40;99.90
33994;DHT22;20673;48.980;8.138;2023-05-10T02:57:33;13.40;99.90
33994;DHT22;20673;48.980;8.138;2023-05-10T03:00:01;13.30;99.90
33994;DHT22;20673;48.980;8.138;2023-05-10T03:02:28;13.40;99.90
33994;DHT22;20673;48.980;8.138;2023-05-10T03:04:56;13.30;99.90
33994;DHT22;20673;48.980;8.138;2023-05-10T03:07:22;13.30;99.90
33994;DHT22;20673;48.980;8.138;2023-05-10T03:09:49;13.30;99.90
33994;DHT22;20673;48.980;8.138;2023-05-10T03:15:47;13.40;99.90
33994;DHT22;20673;48.980;8.138;2023-05-10T03:21:13;13.30;99.90
33994;DHT22;20673;48.980;8.138;2023-05-10T03:23:46;13.30;99.90
33994;DHT22;20673;48.980;8.138;2023-05-10T03:26:20;13.30;99.90
33994;DHT22;20673;48.980;8.138;2023-05-10T03:28:47;13.30;99.90
33994;DHT22;20673;48.980;8.138;2023-05-10T03:31:14;13.30;99.90
33994;DHT22;20673;48.980;8.138;2023-05-10T03:33:52;13.30;99.90
33994;DHT22;20673;48.980;8.138;2023-05-10T03:36:16;13.20;99.90
33994;DHT22;20673;48.980;8.138;2023-05-10T03:38:43;13.20;99.90
33994;DHT22;20673;48.980;8.138;2023-05-10T03:41:09;13.30;99.90
33994;DHT22;20673;48.980;8.138;2023-05-10T03:43:35;13.20;99.90
33994;DHT22;20673;48.980;8.138;2023-05-10T03:46:03;13.30;99.90
33994;DHT22;20673;48.980;8.138;2023-05-10T03:48:30;13.20;99.90
33994;DHT22;20673;48.980;8.138;2023-05-10T03:50:58;13.30;99.90
33994;DHT22;20673;48.980;8.138;2023-05-10T03:53:25;13.30;99.90
33994;DHT22;20673;48.980;8.138;2023-05-10T03:55:52;13.30;99.90
33994;DHT22;20673;48.980;8.138;2023-05-10T03:58:18;13.30;99.90
33994;DHT22;20673;48.980;8.138;2023-05-10T04:00:45;13.30;99.90
33994;DHT22;20673;48.980;8.138;2023-05-10T04:03:11;13.40;99.90
33994;DHT22;20673;48.980;8.138;2023-05-10T04:05:38;13.30;99.90
33994;DHT22;20673;48.980;8.138;2023-05-10T04:08:05;13.30;99.90
33994;DHT22;20673;48.980;8.138;2023-05-10T04:10:32;13.30;99.90
33994;DHT22;20673;48.980;8.138;2023-05-10T04:12:58;13.30;99.90
33994;DHT22;20673;48.980;8.138;2023-05-10T04:15:24;13.30;99.90
33994;DHT22;20673;48.980;8.138;2023-05-10T04:17:50;13.30;99.90
33994;DHT22;20673;48.980;8.138;2023-05-10T04:20:17;13.30;99.90
33994;DHT22;20673;48.980;8.138;2023-05-10T04:22:43;13.30;99.90
33994;DHT22;20673;48.980;8.138;2023-05-10T04:25:09;13.30;99.90
33994;DHT22;20673;48.980;8.138;2023-05-10T04:27:35;13.40;99.90
33994;DHT22;20673;48.980;8.138;2023-05-10T04:30:02;13.40;99.90
33994;DHT22;20673;48.980;8.138;2023-05-10T04:32:29;13.40;99.90
33994;DHT22;20673;48.980;8.138;2023-05-10T04:34:55;13.40;99.90
33994;DHT22;20673;48.980;8.138;2023-05-10T04:37:21;13.40;99.90
33994;DHT22;20673;48.980;8.138;2023-05-10T04:39:48;13.30;99.90
33994;DHT22;20673;48.980;8.138;2023-05-10T04:42:14;13.40;99.90
33994;DHT22;20673;48.980;8.138;2023-05-10T04:44:41;13.40;99.90
33994;DHT22;20673;48.980;8.138;2023-05-10T04:47:07;13.40;99.90
33994;DHT22;20673;48.980;8.138;2023-05-10T04:49:33;13.40;99.90
33994;DHT22;20673;48.980;8.138;2023-05-10T04:51:59;13.50;99.90
33994;DHT22;20673;48.980;8.138;2023-05-10T04:54:25;13.40;99.90
33994;DHT22;20673;48.980;8.138;2023-05-10T04:56:51;13.40;99.90
33994;DHT22;20673;48.980;8.138;2023-05-10T04:59:18;13.50;99.90
33994;DHT22;20673;48.980;8.138;2023-05-10T05:01:44;13.50;99.90
33994;DHT22;20673;48.980;8.138;2023-05-10T05:04:10;13.50;99.90
33994;DHT22;20673;48.980;8.138;2023-05-10T05:06:36;13.60;99.90
33994;DHT22;20673;48.980;8.138;2023-05-10T05:09:02;13.60;99.90
33994;DHT22;20673;48.980;8.138;2023-05-10T05:11:28;13.60;99.90
33994;DHT22;20673;48.980;8.138;2023-05-10T05:13:54;13.70;99.90
33994;DHT22;20673;48.980;8.138;2023-05-10T05:16:21;13.70;99.90
33994;DHT22;20673;48.980;8.138;2023-05-10T05:18:47;13.70;99.90
33994;DHT22;20673;48.980;8.138;2023-05-10T05:21:14;13.70;99.90
33994;DHT22;20673;48.980;8.138;2023-05-10T05:23:44;13.80;99.90
33994;DHT22;20673;48.980;8.138;2023-05-10T05:26:10;13.80;99.90
33994;DHT22;20673;48.980;8.138;2023-05-10T05:28:37;13.80;99.90
33994;DHT22;20673;48.980;8.138;2023-05-10T05:31:04;13.90;99.90
33994;DHT22;20673;48.980;8.138;2023-05-10T05:33:31;13.80;99.90
33994;DHT22;20673;48.980;8.138;2023-05-10T05:36:00;13.90;99.90
33994;DHT22;20673;48.980;8.138;2023-05-10T05:38:29;13.80;99.90
33994;DHT22;20673;48.980;8.138;2023-05-10T05:40:55;13.90;99.90
33994;DHT22;20673;48.980;8.138;2023-05-10T05:43:22;13.90;99.90
33994;DHT22;20673;48.980;8.138;2023-05-10T05:45:49;13.90;99.90
33994;DHT22;20673;48.980;8.138;2023-05-10T05:48:15;13.90;99.90
33994;DHT22;20673;48.980;8.138;2023-05-10T05:50:41;13.90;99.90
33994;DHT22;20673;48.980;8.138;2023-05-10T05:53:08;13.90;99.90
33994;DHT22;20673;48.980;8.138;2023-05-10T05:55:34;13.90;99.90
33994;DHT22;20673;48.980;8.138;2023-05-10T05:58:01;13.90;99.90
33994;DHT22;20673;48.980;8.138;2023-05-10T06:00:27;13.90;99.90
33994;DHT22;20673;48.980;8.138;2023-05-10T06:02:53;14.00;99.90
33994;DHT22;20673;48.980;8.138;2023-05-10T06:05:19;14.00;99.90
33994;DHT22;20673;48.980;8.138;2023-05-10T06:07:46;14.10;99.90
33994;DHT22;20673;48.980;8.138;2023-05-10T06:10:12;14.20;99.90
33994;DHT22;20673;48.980;8.138;2023-05-10T06:12:38;14.20;99.90
33994;DHT22;20673;48.980;8.138;2023-05-10T06:15:05;14.30;99.90
33994;DHT22;20673;48.980;8.138;2023-05-10T06:17:32;14.40;99.90
33994;DHT22;20673;48.980;8.138;2023-05-10T06:19:58;14.50;99.90
33994;DHT22;20673;48.980;8.138;2023-05-10T06:22:26;14.50;99.90
33994;DHT22;20673;48.980;8.138;2023-05-10T06:24:52;14.50;99.90
33994;DHT22;20673;48.980;8.138;2023-05-10T06:27:18;14.60;99.90
33994;DHT22;20673;48.980;8.138;2023-05-10T06:29:45;14.70;99.90
33994;DHT22;20673;48.980;8.138;2023-05-10T06:32:12;14.60;99.90
33994;DHT22;20673;48.980;8.138;2023-05-10T06:34:39;14.70;99.90
33994;DHT22;20673;48.980;8.138;2023-05-10T06:37:05;14.70;99.90
33994;DHT22;20673;48.980;8.138;2023-05-10T06:39:31;14.80;99.90
33994;DHT22;20673;48.980;8.138;2023-05-10T06:41:58;14.90;99.90
33994;DHT22;20673;48.980;8.138;2023-05-10T06:44:24;14.90;99.90
33994;DHT22;20673;48.980;8.138;2023-05-10T06:46:50;15.00;99.90
33994;DHT22;20673;48.980;8.138;2023-05-10T06:49:18;14.90;99.90
33994;DHT22;20673;48.980;8.138;2023-05-10T06:51:44;14.90;99.90
33994;DHT22;20673;48.980;8.138;2023-05-10T06:54:10;15.00;99.90
33994;DHT22;20673;48.980;8.138;2023-05-10T06:56:37;14.90;99.90
33994;DHT22;20673;48.980;8.138;2023-05-10T06:59:03;14.90;99.90
33994;DHT22;20673;48.980;8.138;2023-05-10T07:01:29;14.90;99.90
33994;DHT22;20673;48.980;8.138;2023-05-10T07:03:55;14.90;99.90
33994;DHT22;20673;48.980;8.138;2023-05-10T07:06:21;14.90;99.90
33994;DHT22;20673;48.980;8.138;2023-05-10T07:08:48;14.90;99.90
33994;DHT22;20673;48.980;8.138;2023-05-10T07:11:14;15.00;99.90
33994;DHT22;20673;48.980;8.138;2023-05-10T07:13:40;15.00;99.90
33994;DHT22;20673;48.980;8.138;2023-05-10T07:16:08;15.00;99.90
33994;DHT22;20673;48.980;8.138;2023-05-10T07:18:35;15.00;99.90
33994;DHT22;20673;48.980;8.138;2023-05-10T07:21:02;15.10;99.90
33994;DHT22;20673;48.980;8.138;2023-05-10T07:23:28;15.20;99.90
33994;DHT22;20673;48.980;8.138;2023-05-10T07:25:55;15.20;99.90
33994;DHT22;20673;48.980;8.138;2023-05-10T07:28:23;15.20;99.90
33994;DHT22;20673;48.980;8.138;2023-05-10T07:30:49;15.30;99.90
33994;DHT22;20673;48.980;8.138;2023-05-10T07:33:15;15.30;99.90
33994;DHT22;20673;48.980;8.138;2023-05-10T07:35:43;15.30;99.90
33994;DHT22;20673;48.980;8.138;2023-05-10T07:38:11;15.30;99.90
33994;DHT22;20673;48.980;8.138;2023-05-10T07:40:39;15.30;99.90
33994;DHT22;20673;48.980;8.138;2023-05-10T07:43:07;15.50;99.90
33994;DHT22;20673;48.980;8.138;2023-05-10T07:45:34;15.60;99.90
33994;DHT22;20673;48.980;8.138;2023-05-10T07:48:00;15.70;99.90
33994;DHT22;20673;48.980;8.138;2023-05-10T07:50:27;15.80;99.90
33994;DHT22;20673;48.980;8.138;2023-05-10T07:52:53;15.80;99.90
33994;DHT22;20673;48.980;8.138;2023-05-10T07:55:19;15.80;99.90
33994;DHT22;20673;48.980;8.138;2023-05-10T07:57:46;15.80;99.90
33994;DHT22;20673;48.980;8.138;2023-05-10T08:00:18;15.80;99.90
33994;DHT22;20673;48.980;8.138;2023-05-10T08:02:46;15.80;99.90
33994;DHT22;20673;48.980;8.138;2023-05-10T08:05:13;15.90;99.90
33994;DHT22;20673;48.980;8.138;2023-05-10T08:07:40;15.90;99.90
33994;DHT22;20673;48.980;8.138;2023-05-10T08:10:07;15.70;99.90
33994;DHT22;20673;48.980;8.138;2023-05-10T08:12:34;15.60;99.90
33994;DHT22;20673;48.980;8.138;2023-05-10T08:15:00;15.50;99.90
33994;DHT22;20673;48.980;8.138;2023-05-10T08:17:26;15.30;99.90
33994;DHT22;20673;48.980;8.138;2023-05-10T08:19:52;15.40;99.90
33994;DHT22;20673;48.980;8.138;2023-05-10T08:22:18;15.50;99.90
33994;DHT22;20673;48.980;8.138;2023-05-10T08:24:44;15.60;99.90
33994;DHT22;20673;48.980;8.138;2023-05-10T08:27:11;15.70;99.90
33994;DHT22;20673;48.980;8.138;2023-05-10T08:29:37;15.90;99.90
33994;DHT22;20673;48.980;8.138;2023-05-10T08:32:04;16.10;99.90
33994;DHT22;20673;48.980;8.138;2023-05-10T08:34:30;16.10;99.90
33994;DHT22;20673;48.980;8.138;2023-05-10T08:36:56;16.00;99.90
33994;DHT22;20673;48.980;8.138;2023-05-10T08:39:23;16.10;99.90
33994;DHT22;20673;48.980;8.138;2023-05-10T08:41:51;15.90;99.90
33994;DHT22;20673;48.980;8.138;2023-05-10T08:44:19;16.00;99.90
33994;DHT22;20673;48.980;8.138;2023-05-10T08:46:46;16.00;99.90
33994;DHT22;20673;48.980;8.138;2023-05-10T08:49:17;16.00;99.90
33994;DHT22;20673;48.980;8.138;2023-05-10T08:51:49;16.10;99.90
33994;DHT22;20673;48.980;8.138;2023-05-10T08:54:17;16.10;99.90
33994;DHT22;20673;48.980;8.138;2023-05-10T08:56:43;16.10;99.90
33994;DHT22;20673;48.980;8.138;2023-05-10T08:59:10;16.00;99.90
33994;DHT22;20673;48.980;8.138;2023-05-10T09:01:38;15.90;99.90
33994;DHT22;20673;48.980;8.138;2023-05-10T09:04:06;15.80;99.90
33994;DHT22;20673;48.980;8.138;2023-05-10T09:06:33;15.70;99.90
33994;DHT22;20673;48.980;8.138;2023-05-10T09:08:59;15.80;99.90
33994;DHT22;20673;48.980;8.138;2023-05-10T09:11:27;15.80;99.90
33994;DHT22;20673;48.980;8.138;2023-05-10T09:13:55;15.90;99.90
33994;DHT22;20673;48.980;8.138;2023-05-10T09:16:23;16.00;99.90
33994;DHT22;20673;48.980;8.138;2023-05-10T09:18:50;16.10;99.90
33994;DHT22;20673;48.980;8.138;2023-05-10T09:21:19;16.20;99.90
33994;DHT22;20673;48.980;8.138;2023-05-10T09:23:46;16.20;99.90
33994;DHT22;20673;48.980;8.138;2023-05-10T09:26:16;16.30;99.90
33994;DHT22;20673;48.980;8.138;2023-05-10T09:28:57;16.30;99.90
33994;DHT22;20673;48.980;8.138;2023-05-10T09:34:17;16.40;99.90
33994;DHT22;20673;48.980;8.138;2023-05-10T09:36:58;16.50;99.90
33994;DHT22;20673;48.980;8.138;2023-05-10T09:39:37;16.50;99.90
33994;DHT22;20673;48.980;8.138;2023-05-10T09:42:09;16.50;99.90
33994;DHT22;20673;48.980;8.138;2023-05-10T09:44:35;16.40;99.90
33994;DHT22;20673;48.980;8.138;2023-05-10T09:47:03;16.50;99.90
33994;DHT22;20673;48.980;8.138;2023-05-10T09:49:30;16.60;99.90
33994;DHT22;20673;48.980;8.138;2023-05-10T09:52:02;16.60;99.90
33994;DHT22;20673;48.980;8.138;2023-05-10T09:54:30;16.60;99.90
33994;DHT22;20673;48.980;8.138;2023-05-10T09:56:57;16.80;99.90
33994;DHT22;20673;48.980;8.138;2023-05-10T09:59:25;17.10;99.90
33994;DHT22;20673;48.980;8.138;2023-05-10T10:01:58;17.10;99.90
33994;DHT22;20673;48.980;8.138;2023-05-10T10:04:26;17.00;99.90
33994;DHT22;20673;48.980;8.138;2023-05-10T10:07:04;16.90;99.90
33994;DHT22;20673;48.980;8.138;2023-05-10T10:09:31;16.80;99.90
33994;DHT22;20673;48.980;8.138;2023-05-10T10:12:02;16.80;99.90
33994;DHT22;20673;48.980;8.138;2023-05-10T10:14:31;17.00;99.90
33994;DHT22;20673;48.980;8.138;2023-05-10T10:17:00;17.30;99.90
33994;DHT22;20673;48.980;8.138;2023-05-10T10:19:30;17.40;99.90
33994;DHT22;20673;48.980;8.138;2023-05-10T10:22:02;17.40;99.90
33994;DHT22;20673;48.980;8.138;2023-05-10T10:24:28;17.30;99.90
33994;DHT22;20673;48.980;8.138;2023-05-10T10:26:59;17.40;99.90
33994;DHT22;20673;48.980;8.138;2023-05-10T10:29:38;17.70;99.90
33994;DHT22;20673;48.980;8.138;2023-05-10T10:35:33;17.90;99.90
33994;DHT22;20673;48.980;8.138;2023-05-10T10:38:01;17.90;99.90
33994;DHT22;20673;48.980;8.138;2023-05-10T10:40:32;18.00;99.90
33994;DHT22;20673;48.980;8.138;2023-05-10T10:43:22;18.00;99.90
33994;DHT22;20673;48.980;8.138;2023-05-10T10:46:14;18.00;99.90
33994;DHT22;20673;48.980;8.138;2023-05-10T10:49:09;17.80;99.90
33994;DHT22;20673;48.980;8.138;2023-05-10T10:51:39;17.70;99.90
33994;DHT22;20673;48.980;8.138;2023-05-10T10:54:12;17.60;99.90
33994;DHT22;20673;48.980;8.138;2023-05-10T10:56:38;17.70;99.90
33994;DHT22;20673;48.980;8.138;2023-05-10T10:59:05;17.70;99.90
33994;DHT22;20673;48.980;8.138;2023-05-10T11:01:34;18.30;99.90
33994;DHT22;20673;48.980;8.138;2023-05-10T11:06:35;18.60;99.90
33994;DHT22;20673;48.980;8.138;2023-05-10T11:09:06;18.40;99.90
33994;DHT22;20673;48.980;8.138;2023-05-10T11:11:34;18.20;99.90
33994;DHT22;20673;48.980;8.138;2023-05-10T11:14:06;18.00;99.90
33994;DHT22;20673;48.980;8.138;2023-05-10T11:16:43;18.30;99.90
33994;DHT22;20673;48.980;8.138;2023-05-10T11:19:11;18.60;99.90
33994;DHT22;20673;48.980;8.138;2023-05-10T11:22:11;18.60;99.90
33994;DHT22;20673;48.980;8.138;2023-05-10T11:24:33;18.80;99.90
33994;DHT22;20673;48.980;8.138;2023-05-10T11:27:01;18.70;99.90
33994;DHT22;20673;48.980;8.138;2023-05-10T11:29:28;18.60;99.90
33994;DHT22;20673;48.980;8.138;2023-05-10T11:31:56;18.50;99.90
33994;DHT22;20673;48.980;8.138;2023-05-10T11:34:28;18.60;99.90
33994;DHT22;20673;48.980;8.138;2023-05-10T11:36:56;18.10;99.90
33994;DHT22;20673;48.980;8.138;2023-05-10T11:39:30;18.00;99.90
33994;DHT22;20673;48.980;8.138;2023-05-10T11:41:58;18.10;99.90
33994;DHT22;20673;48.980;8.138;2023-05-10T11:44:33;18.00;99.90
33994;DHT22;20673;48.980;8.138;2023-05-10T11:47:00;18.10;99.90
33994;DHT22;20673;48.980;8.138;2023-05-10T11:49:27;18.10;99.90
33994;DHT22;20673;48.980;8.138;2023-05-10T11:52:09;18.20;99.90
33994;DHT22;20673;48.980;8.138;2023-05-10T11:54:33;18.40;99.90
33994;DHT22;20673;48.980;8.138;2023-05-10T11:57:03;18.50;99.90
33994;DHT22;20673;48.980;8.138;2023-05-10T11:59:29;18.70;99.90
33994;DHT22;20673;48.980;8.138;2023-05-10T12:01:55;18.70;99.90
33994;DHT22;20673;48.980;8.138;2023-05-10T12:04:22;18.60;99.90
33994;DHT22;20673;48.980;8.138;2023-05-10T12:06:49;18.60;99.90
33994;DHT22;20673;48.980;8.138;2023-05-10T12:09:15;19.10;99.90
33994;DHT22;20673;48.980;8.138;2023-05-10T12:11:41;19.20;99.90
33994;DHT22;20673;48.980;8.138;2023-05-10T12:14:08;18.90;99.90
33994;DHT22;20673;48.980;8.138;2023-05-10T12:16:35;18.50;99.90
33994;DHT22;20673;48.980;8.138;2023-05-10T12:19:01;18.50;99.90
33994;DHT22;20673;48.980;8.138;2023-05-10T12:21:29;18.50;99.90
33994;DHT22;20673;48.980;8.138;2023-05-10T12:24:02;18.70;99.90
33994;DHT22;20673;48.980;8.138;2023-05-10T12:26:29;19.00;99.90
33994;DHT22;20673;48.980;8.138;2023-05-10T12:31:56;19.30;99.90
33994;DHT22;20673;48.980;8.138;2023-05-10T12:34:34;20.00;99.90
33994;DHT22;20673;48.980;8.138;2023-05-10T12:37:04;19.90;99.90
33994;DHT22;20673;48.980;8.138;2023-05-10T12:39:43;19.90;99.90
33994;DHT22;20673;48.980;8.138;2023-05-10T12:42:07;19.80;99.90
33994;DHT22;20673;48.980;8.138;2023-05-10T12:44:34;19.50;99.90
33994;DHT22;20673;48.980;8.138;2023-05-10T12:47:00;19.40;99.90
33994;DHT22;20673;48.980;8.138;2023-05-10T12:49:26;19.60;99.90
33994;DHT22;20673;48.980;8.138;2023-05-10T12:51:52;19.90;99.90
33994;DHT22;20673;48.980;8.138;2023-05-10T12:54:19;20.00;99.90
33994;DHT22;20673;48.980;8.138;2023-05-10T12:56:45;19.90;99.90
33994;DHT22;20673;48.980;8.138;2023-05-10T12:59:11;19.80;99.90
33994;DHT22;20673;48.980;8.138;2023-05-10T13:01:37;19.90;99.90
33994;DHT22;20673;48.980;8.138;2023-05-10T13:04:03;20.00;99.90
33994;DHT22;20673;48.980;8.138;2023-05-10T13:06:30;20.20;99.90
33994;DHT22;20673;48.980;8.138;2023-05-10T13:08:56;19.80;99.90
33994;DHT22;20673;48.980;8.138;2023-05-10T13:11:23;19.30;99.90
33994;DHT22;20673;48.980;8.138;2023-05-10T13:13:49;19.20;99.90
33994;DHT22;20673;48.980;8.138;2023-05-10T13:16:15;18.70;99.90
33994;DHT22;20673;48.980;8.138;2023-05-10T13:18:41;18.70;99.90
33994;DHT22;20673;48.980;8.138;2023-05-10T13:21:07;18.80;99.90
33994;DHT22;20673;48.980;8.138;2023-05-10T13:23:34;19.10;99.90
33994;DHT22;20673;48.980;8.138;2023-05-10T13:26:00;19.20;99.90
33994;DHT22;20673;48.980;8.138;2023-05-10T13:28:26;19.10;99.90
33994;DHT22;20673;48.980;8.138;2023-05-10T13:30:53;18.90;99.90
33994;DHT22;20673;48.980;8.138;2023-05-10T13:33:19;19.00;99.90
33994;DHT22;20673;48.980;8.138;2023-05-10T13:35:46;19.00;99.90
33994;DHT22;20673;48.980;8.138;2023-05-10T13:38:12;18.90;99.90
33994;DHT22;20673;48.980;8.138;2023-05-10T13:40:39;18.80;99.90
33994;DHT22;20673;48.980;8.138;2023-05-10T13:43:05;18.80;99.90
33994;DHT22;20673;48.980;8.138;2023-05-10T13:45:32;18.70;99.90
33994;DHT22;20673;48.980;8.138;2023-05-10T13:47:59;18.60;99.90
33994;DHT22;20673;48.980;8.138;2023-05-10T13:50:25;18.50;99.90
33994;DHT22;20673;48.980;8.138;2023-05-10T13:52:52;18.50;99.90
33994;DHT22;20673;48.980;8.138;2023-05-10T13:55:18;18.40;99.90
33994;DHT22;20673;48.980;8.138;2023-05-10T13:57:45;18.50;99.90
33994;DHT22;20673;48.980;8.138;2023-05-10T14:00:12;18.40;99.90
33994;DHT22;20673;48.980;8.138;2023-05-10T14:02:39;18.40;99.90
33994;DHT22;20673;48.980;8.138;2023-05-10T14:05:06;18.60;99.90
33994;DHT22;20673;48.980;8.138;2023-05-10T14:07:33;18.90;99.90
33994;DHT22;20673;48.980;8.138;2023-05-10T14:09:59;19.10;99.90
33994;DHT22;20673;48.980;8.138;2023-05-10T14:12:25;19.20;99.90
33994;DHT22;20673;48.980;8.138;2023-05-10T14:14:52;19.30;99.90
33994;DHT22;20673;48.980;8.138;2023-05-10T14:17:18;19.60;99.90
33994;DHT22;20673;48.980;8.138;2023-05-10T14:19:45;19.80;99.90
33994;DHT22;20673;48.980;8.138;2023-05-10T14:22:14;20.20;99.90
33994;DHT22;20673;48.980;8.138;2023-05-10T14:24:40;20.20;99.90
33994;DHT22;20673;48.980;8.138;2023-05-10T14:27:06;20.40;99.90
33994;DHT22;20673;48.980;8.138;2023-05-10T14:29:33;20.30;99.90
33994;DHT22;20673;48.980;8.138;2023-05-10T14:32:03;20.00;99.90
33994;DHT22;20673;48.980;8.138;2023-05-10T14:34:30;19.90;99.90
33994;DHT22;20673;48.980;8.138;2023-05-10T14:36:56;19.70;99.90
33994;DHT22;20673;48.980;8.138;2023-05-10T14:39:22;19.80;99.90
33994;DHT22;20673;48.980;8.138;2023-05-10T14:41:49;19.60;99.90
33994;DHT22;20673;48.980;8.138;2023-05-10T14:44:17;19.20;99.90
33994;DHT22;20673;48.980;8.138;2023-05-10T14:46:43;19.00;99.90
33994;DHT22;20673;48.980;8.138;2023-05-10T14:49:09;18.80;99.90
33994;DHT22;20673;48.980;8.138;2023-05-10T14:51:36;18.70;99.90
33994;DHT22;20673;48.980;8.138;2023-05-10T14:54:03;18.50;99.90
33994;DHT22;20673;48.980;8.138;2023-05-10T14:56:29;18.50;99.90
33994;DHT22;20673;48.980;8.138;2023-05-10T14:58:55;18.60;99.90
33994;DHT22;20673;48.980;8.138;2023-05-10T15:01:21;18.60;99.90
33994;DHT22;20673;48.980;8.138;2023-05-10T15:03:49;18.60;99.90
33994;DHT22;20673;48.980;8.138;2023-05-10T15:06:16;18.40;99.90
33994;DHT22;20673;48.980;8.138;2023-05-10T15:08:42;18.40;99.90
33994;DHT22;20673;48.980;8.138;2023-05-10T15:11:09;18.40;99.90
33994;DHT22;20673;48.980;8.138;2023-05-10T15:13:35;18.50;99.90
33994;DHT22;20673;48.980;8.138;2023-05-10T15:16:01;18.60;99.90
33994;DHT22;20673;48.980;8.138;2023-05-10T15:18:27;18.70;99.90
33994;DHT22;20673;48.980;8.138;2023-05-10T15:20:53;18.80;99.90
33994;DHT22;20673;48.980;8.138;2023-05-10T15:23:21;18.70;99.90
33994;DHT22;20673;48.980;8.138;2023-05-10T15:25:47;18.60;99.90
33994;DHT22;20673;48.980;8.138;2023-05-10T15:28:16;18.80;99.90
33994;DHT22;20673;48.980;8.138;2023-05-10T15:30:42;18.90;99.90
33994;DHT22;20673;48.980;8.138;2023-05-10T15:33:10;18.90;99.90
33994;DHT22;20673;48.980;8.138;2023-05-10T15:35:37;18.70;99.90
33994;DHT22;20673;48.980;8.138;2023-05-10T15:38:05;18.80;99.90
33994;DHT22;20673;48.980;8.138;2023-05-10T15:40:33;18.80;99.90
33994;DHT22;20673;48.980;8.138;2023-05-10T15:43:00;18.60;99.90
33994;DHT22;20673;48.980;8.138;2023-05-10T15:45:27;18.50;99.90
33994;DHT22;20673;48.980;8.138;2023-05-10T15:47:53;18.40;99.90
33994;DHT22;20673;48.980;8.138;2023-05-10T15:50:20;18.40;99.90
33994;DHT22;20673;48.980;8.138;2023-05-10T15:52:47;18.40;99.90
33994;DHT22;20673;48.980;8.138;2023-05-10T15:55:14;18.40;99.90
33994;DHT22;20673;48.980;8.138;2023-05-10T15:57:41;18.50;99.90
33994;DHT22;20673;48.980;8.138;2023-05-10T16:00:10;18.40;99.90
33994;DHT22;20673;48.980;8.138;2023-05-10T16:02:38;18.20;99.90
33994;DHT22;20673;48.980;8.138;2023-05-10T16:05:07;18.30;99.90